Time;durP1;ratioP1;P1;durP2;ratioP2;P2;SDS_P1;SDS_P2;PMS_P1;PMS_P2;Temp;Humidity;BMP_temperature;BMP_pressure;BME280_temperature;BME280_humidity;BME280_pressure;Samples;Min_cycle;Max_cycle;Signal;HPM_P1;HPM_P2
2023/08/06 19:17:54;;;;;;;1.83;0.50;;;;;;;;;;5009151;28;20041;-74
2023/08/06 19:20:20;;;;;;;1.17;0.50;;;;;;;;;;5011225;28;20092;-74
2023/08/06 19:22:47;;;;;;;2.03;0.63;;;;;;;;;;5011232;28;20529;-73
2023/08/06 19:25:13;;;;;;;1.65;0.50;;;;;;;;;;5010823;28;20081;-69
2023/08/06 19:27:40;;;;;;;1.52;0.70;;;;;;;;;;5011175;28;20034;-69
2023/08/06 19:30:07;;;;;;;1.40;0.57;;;;;;;;;;5011078;28;20034;-69
2023/08/06 19:32:33;;;;;;;2.28;0.65;;;;;;;;;;5011017;28;20045;-69
2023/08/06 19:35:00;;;;;;;1.85;0.50;;;;;;;;;;5011191;28;20042;-68
2023/08/06 19:37:27;;;;;;;3.38;0.80;;;;;;;;;;5011188;28;20037;-69
2023/08/06 19:39:53;;;;;;;2.03;0.60;;;;;;;;;;5011045;28;20128;-69
2023/08/06 19:42:20;;;;;;;2.75;0.52;;;;;;;;;;5011708;28;20077;-73
2023/08/06 19:44:46;;;;;;;2.00;0.57;;;;;;;;;;5010908;28;20053;-73
2023/08/06 19:47:13;;;;;;;1.60;0.50;;;;;;;;;;5010996;28;20470;-73
2023/08/06 19:49:39;;;;;;;0.95;0.45;;;;;;;;;;5010589;28;20041;-73
2023/08/06 19:52:06;;;;;;;2.72;1.20;;;;;;;;;;5011000;28;20030;-70
2023/08/06 19:54:32;;;;;;;1.73;0.40;;;;;;;;;;5010951;28;20470;-69
2023/08/06 19:56:59;;;;;;;2.15;0.60;;;;;;;;;;5010859;28;20030;-69
2023/08/06 19:59:25;;;;;;;2.58;0.85;;;;;;;;;;5010615;28;20042;-69
2023/08/06 20:01:52;;;;;;;1.52;0.50;;;;;;;;;;5010353;28;20053;-69
2023/08/06 20:04:19;;;;;;;1.30;0.50;;;;;;;;;;5012999;28;20054;-69
2023/08/06 20:06:46;;;;;;;2.05;0.70;;;;;;;;;;5014153;28;20112;-69
2023/08/06 20:09:12;;;;;;;2.65;0.57;;;20.70;68.80;;;;;;5014632;28;20042;-73
2023/08/06 20:11:39;;;;;;;1.75;0.70;;;;;;;;;;5014137;28;20041;-73
2023/08/06 20:14:06;;;;;;;1.60;0.65;;;;;;;;;;5014356;28;20109;-73
2023/08/06 20:16:32;;;;;;;1.83;0.60;;;;;;;;;;5014041;28;20080;-73
2023/08/06 20:18:59;;;;;;;2.17;0.70;;;;;;;;;;5014258;28;20425;-73
2023/08/06 20:21:25;;;;;;;1.23;0.35;;;;;;;;;;5014035;28;20049;-69
2023/08/06 20:23:52;;;;;;;1.83;0.63;;;;;;;;;;5013980;28;20105;-69
2023/08/06 20:26:18;;;;;;;0.70;0.57;;;;;;;;;;5014011;28;20096;-69
2023/08/06 20:28:45;;;;;;;1.52;0.50;;;;;;;;;;5014207;28;20037;-69
2023/08/06 20:31:11;;;;;;;1.08;0.40;;;;;;;;;;5014108;28;20053;-69
2023/08/06 20:33:38;;;;;;;2.00;0.70;;;;;;;;;;5013769;28;20053;-69
2023/08/06 20:36:05;;;;;;;1.33;0.55;;;;;;;;;;5013656;28;20112;-69
2023/08/06 20:38:31;;;;;;;1.85;0.40;;;;;;;;;;5014436;28;20434;-74
2023/08/06 20:40:58;;;;;;;1.80;0.75;;;;;;;;;;5013853;28;20029;-75
2023/08/06 20:43:25;;;;;;;2.15;0.60;;;;;;;;;;5013713;28;20046;-73
2023/08/06 20:45:54;;;;;;;2.17;0.70;;;20.50;66.00;;;;;;5013417;28;20134;-75
2023/08/06 20:48:21;;;;;;;1.58;0.63;;;;;;;;;;5013729;28;20174;-75
2023/08/06 20:50:47;;;;;;;2.63;0.70;;;;;;;;;;5013762;28;20164;-70
2023/08/06 20:53:14;;;;;;;1.50;0.40;;;20.40;96.50;;;;;;5013378;28;20510;-70
2023/08/06 20:55:40;;;;;;;2.25;0.73;;;;;;;;;;5013549;28;20041;-68
2023/08/06 20:58:07;;;;;;;3.78;0.80;;;;;;;;;;5013455;28;20050;-69
2023/08/06 21:00:34;;;;;;;1.70;0.60;;;;;;;;;;5013396;28;20042;-70
2023/08/06 21:03:00;;;;;;;0.98;0.52;;;;;;;;;;5013046;28;20037;-69
2023/08/06 21:05:29;;;;;;;2.88;0.85;;;;;;;;;;5012969;28;20124;-69
2023/08/06 21:07:55;;;;;;;3.13;0.75;;;;;;;;;;5013865;28;20034;-74
2023/08/06 21:10:22;;;;;;;2.08;0.80;;;;;;;;;;5013308;28;20038;-73
2023/08/06 21:12:48;;;;;;;1.55;0.70;;;;;;;;;;5012979;28;20033;-74
2023/08/06 21:15:15;;;;;;;2.03;0.70;;;;;;;;;;5012676;28;20529;-73
2023/08/06 21:17:42;;;;;;;1.42;0.70;;;;;;;;;;5012804;28;20049;-73
2023/08/06 21:20:09;;;;;;;1.77;0.65;;;;;;;;;;5013114;28;20042;-69
2023/08/06 21:22:35;;;;;;;1.65;0.60;;;;;;;;;;5013119;28;20038;-69
2023/08/06 21:25:02;;;;;;;2.95;0.70;;;;;;;;;;5013156;28;20046;-70
2023/08/06 21:27:28;;;;;;;2.10;0.65;;;;;;;;;;5012692;28;20041;-70
2023/08/06 21:29:55;;;;;;;3.20;0.77;;;;;;;;;;5012994;28;20061;-69
2023/08/06 21:32:23;;;;;;;0.82;0.55;;;;;;;;;;5012871;28;20053;-70
2023/08/06 21:34:50;;;;;;;1.42;0.60;;;;;;;;;;5012917;28;20037;-70
2023/08/06 21:37:16;;;;;;;1.23;0.68;;;;;;;;;;5011828;28;20505;-70
2023/08/06 21:39:43;;;;;;;1.85;0.63;;;;;;;;;;5011547;28;20071;-70
2023/08/06 21:42:09;;;;;;;1.77;0.63;;;;;;;;;;5011853;28;20061;-70
2023/08/06 21:44:36;;;;;;;2.35;0.60;;;;;;;;;;5011243;28;20585;-69
2023/08/06 21:47:02;;;;;;;3.20;0.90;;;;;;;;;;5012648;28;20030;-70
2023/08/06 21:49:29;;;;;;;1.98;0.80;;;;;;;;;;5012635;28;20069;-70
2023/08/06 21:51:57;;;;;;;1.65;0.50;;;;;;;;;;5012594;28;20030;-69
2023/08/06 21:54:23;;;;;;;2.40;0.73;;;;;;;;;;5012535;28;20049;-69
2023/08/06 21:56:50;;;;;;;1.13;0.60;;;;;;;;;;5012215;28;20061;-69
2023/08/06 21:59:16;;;;;;;2.42;0.50;;;;;;;;;;5012125;28;20513;-69
2023/08/06 22:01:42;;;;;;;1.38;0.70;;;20.40;96.40;;;;;;5012295;28;20037;-70
2023/08/06 22:04:09;;;;;;;1.42;0.70;;;;;;;;;;5012790;28;20395;-69
2023/08/06 22:06:35;;;;;;;3.30;0.85;;;;;;;;;;5012040;28;20049;-70
2023/08/06 22:09:02;;;;;;;2.22;0.73;;;;;;;;;;5012293;28;20576;-69
2023/08/06 22:11:28;;;;;;;1.88;0.57;;;;;;;;;;5012153;28;20095;-69
2023/08/06 22:13:54;;;;;;;2.63;0.77;;;;;;;;;;5011946;28;20116;-70
2023/08/06 22:16:21;;;;;;;0.93;0.50;;;;;;;;;;5011656;28;20084;-74
2023/08/06 22:18:47;;;;;;;1.38;0.70;;;;;;;;;;5012246;28;20057;-74
2023/08/06 22:21:14;;;;;;;1.08;0.52;;;;;;;;;;5011973;28;20088;-74
2023/08/06 22:23:42;;;;;;;1.40;0.60;;;19.90;71.50;;;;;;5012076;28;20502;-74
2023/08/06 22:26:09;;;;;;;2.47;0.65;;;;;;;;;;5011319;28;20042;-74
2023/08/06 22:28:35;;;;;;;1.10;0.50;;;;;;;;;;5011724;28;20514;-74
2023/08/06 22:31:02;;;;;;;2.28;0.70;;;;;;;;;;5012007;28;20112;-74
2023/08/06 22:33:29;;;;;;;1.95;0.65;;;;;;;;;;5012320;28;20041;-74
2023/08/06 22:35:56;;;;;;;2.60;0.80;;;;;;;;;;5011734;28;20050;-74
2023/08/06 22:38:22;;;;;;;1.63;0.85;;;;;;;;;;5011756;28;20133;-74
2023/08/06 22:40:49;;;;;;;1.90;0.73;;;;;;;;;;5011383;28;20502;-74
2023/08/06 22:43:15;;;;;;;1.95;0.60;;;;;;;;;;5011557;28;20030;-69
2023/08/06 22:45:42;;;;;;;1.80;0.50;;;;;;;;;;5011705;28;20042;-69
2023/08/06 22:48:08;;;;;;;1.38;0.60;;;;;;;;;;5011665;28;20161;-69
2023/08/06 22:50:35;;;;;;;0.93;0.70;;;;;;;;;;5011225;28;20048;-69
2023/08/06 22:53:01;;;;;;;1.10;0.60;;;;;;;;;;5011521;28;20487;-69
2023/08/06 22:55:28;;;;;;;0.90;0.70;;;;;;;;;;5011242;28;20038;-69
2023/08/06 22:57:54;;;;;;;1.25;0.57;;;;;;;;;;5011092;28;20561;-69
2023/08/06 23:00:21;;;;;;;2.45;0.95;;;;;;;;;;5011841;28;20426;-73
2023/08/06 23:02:48;;;;;;;2.33;0.90;;;;;;;;;;5011197;28;20044;-74
2023/08/06 23:05:14;;;;;;;2.72;0.80;;;;;;;;;;5011077;28;20129;-73
2023/08/06 23:07:41;;;;;;;2.42;0.60;;;;;;;;;;5011379;28;20417;-73
2023/08/06 23:10:08;;;;;;;2.58;0.52;;;;;;;;;;5011116;28;20034;-73
2023/08/06 23:12:34;;;;;;;2.72;0.57;;;;;;;;;;5011363;28;20030;-69
2023/08/06 23:15:00;;;;;;;1.25;0.55;;;;;;;;;;5011056;28;20038;-70
2023/08/06 23:17:27;;;;;;;1.27;0.70;;;;;;;;;;5010873;28;20054;-70
2023/08/06 23:19:56;;;;;;;1.75;0.60;;;;;;;;;;5011173;28;20049;-69
2023/08/06 23:22:23;;;;;;;1.30;0.70;;;;;;;;;;5010980;28;20502;-69
2023/08/06 23:24:49;;;;;;;1.90;0.70;;;;;;;;;;5010819;28;20046;-69
2023/08/06 23:27:16;;;;;;;2.22;0.60;;;;;;;;;;5011484;28;20113;-69
2023/08/06 23:29:43;;;;;;;1.05;0.43;;;;;;;;;;5011600;28;20033;-73
2023/08/06 23:32:09;;;;;;;1.83;0.68;;;;;;;;;;5011116;28;20165;-74
2023/08/06 23:34:36;;;;;;;0.73;0.40;;;;;;;;;;5011231;28;20030;-75
2023/08/06 23:37:02;;;;;;;3.45;0.70;;;;;;;;;;5011158;28;20072;-75
2023/08/06 23:39:29;;;;;;;3.63;1.00;;;;;;;;;;5013434;28;20046;-75
2023/08/06 23:41:55;;;;;;;2.20;0.70;;;;;;;;;;5015120;28;20421;-75
2023/08/06 23:44:22;;;;;;;1.55;0.70;;;;;;;;;;5014598;28;20034;-75
2023/08/06 23:46:48;;;;;;;2.00;0.60;;;;;;;;;;5015026;28;20521;-75
2023/08/06 23:49:16;;;;;;;2.80;0.73;;;;;;;;;;5014858;28;20034;-75
2023/08/06 23:51:42;;;;;;;2.55;0.60;;;;;;;;;;5014552;28;20078;-73
2023/08/06 23:54:09;;;;;;;0.95;0.60;;;;;;;;;;5014758;28;20038;-73
2023/08/06 23:56:35;;;;;;;1.02;0.60;;;;;;;;;;5014615;28;20129;-73
2023/08/06 23:59:02;;;;;;;0.93;0.57;;;;;;;;;;5015089;28;20038;-69
